Time;durP1;ratioP1;P1;durP2;ratioP2;P2;SDS_P1;SDS_P2;PMS_P1;PMS_P2;Temp;Humidity;BMP_temperature;BMP_pressure;BME280_temperature;BME280_humidity;BME280_pressure;Samples;Min_cycle;Max_cycle;Signal;HPM_P1;HPM_P2
2022/12/30 00:00:55;;;;;;;;;;;19.20;47.40;;;;;;5013121;28;19925;-76
2022/12/30 00:03:24;;;;;;;;;;;19.20;47.40;;;;;;5010657;28;19964;-75
2022/12/30 00:05:51;;;;;;;;;;;19.20;47.50;;;;;;5009908;28;19957;-73
2022/12/30 00:11:01;;;;;;;;;;;19.20;47.50;;;;;;5010103;28;19971;-73
2022/12/30 00:35:34;;;;;;;;;;;19.20;47.50;;;;;;5009247;28;20012;-72
2022/12/30 00:38:00;;;;;;;;;;;19.20;47.50;;;;;;5009029;28;20409;-77
2022/12/30 00:40:27;;;;;;;;;;;19.20;47.50;;;;;;5011449;28;20463;-72
2022/12/30 00:43:08;;;;;;;;;;;19.20;47.50;;;;;;5011013;28;19925;-74
2022/12/30 00:45:35;;;;;;;;;;;19.20;47.60;;;;;;5009288;28;19932;-76
2022/12/30 00:56:12;;;;;;;;;;;19.20;47.60;;;;;;5007979;28;20442;-72
2022/12/30 00:58:39;;;;;;;;;;;19.20;47.60;;;;;;5007568;28;19925;-75
2022/12/30 01:01:06;;;;;;;;;;;19.20;48.20;;;;;;5008937;28;20056;-73
2022/12/30 01:03:32;;;;;;;;;;;19.20;47.60;;;;;;5007092;28;19985;-72
2022/12/30 01:06:04;;;;;;;;;;;19.20;47.60;;;;;;4989371;28;19969;-74
2022/12/30 01:08:31;;;;;;;;;;;19.20;47.60;;;;;;5008771;28;20371;-74
2022/12/30 01:10:58;;;;;;;;;;;19.20;47.60;;;;;;5009142;28;19933;-73
2022/12/30 01:13:24;;;;;;;;;;;19.20;47.60;;;;;;4992539;28;19971;-74
2022/12/30 01:15:51;;;;;;;;;;;19.20;47.60;;;;;;5008694;28;19961;-74
2022/12/30 01:18:18;;;;;;;;;;;19.20;47.60;;;;;;5007886;28;19968;-78
2022/12/30 01:20:44;;;;;;;;;;;19.20;47.60;;;;;;5007206;28;19921;-74
2022/12/30 01:23:13;;;;;;;;;;;19.20;47.60;;;;;;5010530;28;19945;-73
2022/12/30 01:25:40;;;;;;;;;;;19.20;47.60;;;;;;5011068;28;19925;-73
2022/12/30 01:28:07;;;;;;;;;;;19.20;47.60;;;;;;5010323;28;19928;-73
2022/12/30 01:30:34;;;;;;;;;;;19.20;47.60;;;;;;5009523;28;19921;-71
2022/12/30 01:33:00;;;;;;;;;;;19.20;47.60;;;;;;5009779;28;19922;-72
2022/12/30 01:35:27;;;;;;;;;;;19.20;47.60;;;;;;5009608;28;19988;-72
2022/12/30 01:37:54;;;;;;;;;;;19.20;47.60;;;;;;5008915;28;19945;-72
2022/12/30 01:40:22;;;;;;;;;;;19.20;47.60;;;;;;5009787;28;19921;-76
2022/12/30 01:42:49;;;;;;;;;;;19.20;47.60;;;;;;5010452;28;19921;-71
2022/12/30 01:45:19;;;;;;;;;;;19.20;47.60;;;;;;5009324;28;19928;-71
2022/12/30 01:47:48;;;;;;;;;;;19.20;47.60;;;;;;5005054;28;19922;-72
2022/12/30 01:50:23;;;;;;;;;;;19.10;47.50;;;;;;5008140;28;19922;-72
2022/12/30 01:52:51;;;;;;;;;;;19.10;47.50;;;;;;5005471;28;19956;-74
2022/12/30 01:55:19;;;;;;;;;;;19.10;47.50;;;;;;5023892;28;19922;-73
2022/12/30 01:57:48;;;;;;;;;;;19.10;47.50;;;;;;5007616;28;20051;-71
2022/12/30 02:00:15;;;;;;;;;;;19.20;47.60;;;;;;5007262;28;19922;-71
2022/12/30 02:02:42;;;;;;;;;;;19.20;47.60;;;;;;5009534;28;19921;-71
2022/12/30 02:05:09;;;;;;;;;;;19.10;47.50;;;;;;5007148;28;19999;-73
2022/12/30 02:07:36;;;;;;;;;;;19.10;47.50;;;;;;5009822;28;19921;-72
2022/12/30 02:10:03;;;;;;;;;;;19.10;47.50;;;;;;5009133;28;19929;-72
2022/12/30 02:12:29;;;;;;;;;;;19.10;47.50;;;;;;5009265;28;19922;-71
2022/12/30 02:14:58;;;;;;;;;;;19.10;47.50;;;;;;5010142;28;19925;-72
2022/12/30 02:17:25;;;;;;;;;;;19.20;47.60;;;;;;5001872;28;19992;-71
2022/12/30 02:20:05;;;;;;;;;;;19.10;47.40;;;;;;5008408;28;20399;-71
2022/12/30 02:22:35;;;;;;;;;;;19.20;47.60;;;;;;5007740;28;20371;-73
2022/12/30 02:25:14;;;;;;;;;;;19.20;47.60;;;;;;5009689;28;19984;-75
2022/12/30 02:27:59;;;;;;;;;;;19.20;47.60;;;;;;5008655;28;19921;-76
2022/12/30 02:30:28;;;;;;;;;;;19.20;47.60;;;;;;5004868;28;19921;-73
2022/12/30 02:33:09;;;;;;;;;;;19.10;47.50;;;;;;5010556;28;19976;-73
2022/12/30 02:35:37;;;;;;;;;;;19.20;47.60;;;;;;5008307;28;19922;-74
2022/12/30 02:38:08;;;;;;;;;;;19.10;47.50;;;;;;5010269;28;19926;-71
2022/12/30 02:46:01;;;;;;;;;;;19.20;47.60;;;;;;5006098;28;19953;-73
2022/12/30 02:48:30;;;;;;;;;;;19.10;47.50;;;;;;5008519;28;19980;-73
2022/12/30 02:53:50;;;;;;;;;;;19.10;47.50;;;;;;4978093;28;19950;-71
2022/12/30 02:56:16;;;;;;;;;;;19.10;47.50;;;;;;5008674;28;19933;-75
2022/12/30 02:58:44;;;;;;;;;;;19.10;47.50;;;;;;5008865;28;19982;-71
2022/12/30 03:04:01;;;;;;;;;;;19.10;47.50;;;;;;5009634;28;19963;-72
2022/12/30 03:06:32;;;;;;;;;;;19.10;47.50;;;;;;5005285;28;20004;-73
2022/12/30 03:09:00;;;;;;;;;;;19.10;47.50;;;;;;5008459;28;20032;-74
2022/12/30 03:11:25;;;;;;;;;;;19.10;47.50;;;;;;5006149;28;19953;-72
2022/12/30 03:13:55;;;;;;;;;;;19.10;47.50;;;;;;5008734;28;19961;-74
2022/12/30 03:16:22;;;;;;;;;;;19.10;47.50;;;;;;5007433;28;20016;-75
2022/12/30 03:18:49;;;;;;;;;;;19.10;47.40;;;;;;5007497;28;19921;-74
2022/12/30 03:21:17;;;;;;;;;;;19.10;47.50;;;;;;5009310;28;19980;-71
2022/12/30 03:29:14;;;;;;;;;;;19.10;47.50;;;;;;5006260;28;19921;-77
2022/12/30 03:31:41;;;;;;;;;;;19.10;47.50;;;;;;5006340;28;19937;-74
2022/12/30 03:34:08;;;;;;;;;;;19.10;47.40;;;;;;5007916;28;19983;-74
2022/12/30 03:36:37;;;;;;;;;;;19.10;47.50;;;;;;5007405;28;19983;-74
2022/12/30 03:39:06;;;;;;;;;;;19.10;47.40;;;;;;5008489;28;19956;-72
2022/12/30 03:41:32;;;;;;;;;;;19.10;47.40;;;;;;5007542;28;19984;-73
2022/12/30 03:43:59;;;;;;;;;;;19.10;47.50;;;;;;5009512;28;20007;-72
2022/12/30 03:46:26;;;;;;;;;;;19.10;47.40;;;;;;5008015;28;19952;-75
2022/12/30 03:48:53;;;;;;;;;;;19.10;47.40;;;;;;5002706;28;20009;-71
2022/12/30 03:51:20;;;;;;;;;;;19.10;47.50;;;;;;5008871;28;19921;-75
2022/12/30 03:53:48;;;;;;;;;;;19.10;47.50;;;;;;5003845;28;19921;-73
2022/12/30 03:56:15;;;;;;;;;;;19.10;47.40;;;;;;5008023;28;19926;-73
2022/12/30 03:58:42;;;;;;;;;;;19.10;47.40;;;;;;5009238;28;19929;-75
2022/12/30 04:01:08;;;;;;;;;;;19.10;47.40;;;;;;5007029;28;19925;-74
2022/12/30 04:03:35;;;;;;;;;;;19.10;47.50;;;;;;5007270;28;20037;-73
2022/12/30 04:06:03;;;;;;;;;;;19.10;47.50;;;;;;5009050;28;19933;-71
2022/12/30 04:08:30;;;;;;;;;;;19.10;47.50;;;;;;5007319;28;19945;-72
2022/12/30 04:10:58;;;;;;;;;;;19.10;47.40;;;;;;5007002;28;19972;-74
2022/12/30 04:13:25;;;;;;;;;;;19.10;47.40;;;;;;5007059;28;19921;-74
2022/12/30 04:15:51;;;;;;;;;;;19.10;47.40;;;;;;5007814;28;20395;-76
2022/12/30 04:18:21;;;;;;;;;;;19.10;47.40;;;;;;5008038;28;20410;-72
2022/12/30 04:20:48;;;;;;;;;;;19.10;47.40;;;;;;5003656;28;19921;-71
2022/12/30 04:23:15;;;;;;;;;;;19.10;47.40;;;;;;5007733;28;19929;-71
2022/12/30 04:25:42;;;;;;;;;;;19.10;47.40;;;;;;5008022;28;19934;-75
2022/12/30 04:28:10;;;;;;;;;;;19.10;47.40;;;;;;5008175;28;19945;-71
2022/12/30 04:30:37;;;;;;;;;;;19.10;47.40;;;;;;5005237;28;19922;-76
2022/12/30 04:33:04;;;;;;;;;;;19.10;47.40;;;;;;5007243;28;20039;-71
2022/12/30 04:35:30;;;;;;;;;;;19.10;47.40;;;;;;5007976;28;19925;-71
2022/12/30 04:37:57;;;;;;;;;;;19.10;47.40;;;;;;5005998;28;19922;-75
2022/12/30 04:40:24;;;;;;;;;;;19.10;47.40;;;;;;5009451;28;19925;-72
2022/12/30 04:42:50;;;;;;;;;;;19.10;47.40;;;;;;5010116;28;19922;-73
2022/12/30 04:45:19;;;;;;;;;;;19.10;47.40;;;;;;5013089;28;19921;-76
2022/12/30 04:47:46;;;;;;;;;;;19.10;47.40;;;;;;5009326;28;19926;-73
2022/12/30 04:50:13;;;;;;;;;;;19.10;47.40;;;;;;5011078;28;19925;-72
2022/12/30 04:52:39;;;;;;;;;;;19.10;47.40;;;;;;5010430;28;19925;-75
2022/12/30 04:55:07;;;;;;;;;;;19.10;47.30;;;;;;5011529;28;19921;-72
2022/12/30 04:57:34;;;;;;;;;;;19.10;47.40;;;;;;5008744;28;20020;-74
2022/12/30 05:00:01;;;;;;;;;;;19.10;47.40;;;;;;5010423;28;19950;-72
2022/12/30 05:02:29;;;;;;;;;;;19.10;47.40;;;;;;5011044;28;19922;-72
2022/12/30 05:04:56;;;;;;;;;;;19.10;47.40;;;;;;5010519;28;19925;-75
2022/12/30 05:07:22;;;;;;;;;;;19.10;47.30;;;;;;5008792;28;20008;-77
2022/12/30 05:09:49;;;;;;;;;;;19.10;47.40;;;;;;5011186;28;20430;-74
2022/12/30 05:12:16;;;;;;;;;;;19.10;47.30;;;;;;5010646;28;19922;-72
2022/12/30 05:14:43;;;;;;;;;;;19.10;47.40;;;;;;5010132;28;19933;-75
2022/12/30 05:17:09;;;;;;;;;;;19.10;47.40;;;;;;5010637;28;20303;-72
2022/12/30 05:19:38;;;;;;;;;;;19.10;47.30;;;;;;5012394;28;19983;-74
2022/12/30 05:22:05;;;;;;;;;;;19.10;47.40;;;;;;5011476;28;19925;-75
2022/12/30 05:27:15;;;;;;;;;;;19.10;47.40;;;;;;5010068;28;20291;-72
2022/12/30 05:29:42;;;;;;;;;;;19.10;47.40;;;;;;5010035;28;20204;-73
2022/12/30 05:32:09;;;;;;;;;;;19.10;47.30;;;;;;5008397;28;20321;-71
2022/12/30 05:34:36;;;;;;;;;;;19.10;47.40;;;;;;5011784;28;19968;-71
2022/12/30 05:37:04;;;;;;;;;;;19.10;47.40;;;;;;5005229;28;20399;-72
2022/12/30 05:39:31;;;;;;;;;;;19.10;47.30;;;;;;5007868;28;19925;-73
2022/12/30 05:41:58;;;;;;;;;;;19.10;47.40;;;;;;5009667;28;19922;-72
2022/12/30 05:44:25;;;;;;;;;;;19.10;47.30;;;;;;5010352;28;19992;-75
2022/12/30 05:46:52;;;;;;;;;;;19.10;47.30;;;;;;5006767;28;19928;-72
2022/12/30 05:49:19;;;;;;;;;;;19.10;47.30;;;;;;5009251;28;20138;-75
2022/12/30 05:51:45;;;;;;;;;;;19.10;47.30;;;;;;5007132;28;19922;-73
2022/12/30 05:54:14;;;;;;;;;;;19.10;47.30;;;;;;5010310;28;19926;-72
2022/12/30 05:56:41;;;;;;;;;;;19.10;47.30;;;;;;5008839;28;19957;-72
2022/12/30 05:59:08;;;;;;;;;;;19.10;47.30;;;;;;5009908;28;19921;-72
2022/12/30 06:01:35;;;;;;;;;;;19.10;47.30;;;;;;5005753;28;19922;-74
2022/12/30 06:04:02;;;;;;;;;;;19.10;47.20;;;;;;5011020;28;19925;-73
2022/12/30 06:06:29;;;;;;;;;;;19.10;47.20;;;;;;5006541;28;20235;-72
2022/12/30 06:08:55;;;;;;;;;;;19.10;47.20;;;;;;5008663;28;19964;-76
2022/12/30 06:11:24;;;;;;;;;;;19.10;47.30;;;;;;5010047;28;19933;-72
2022/12/30 06:13:51;;;;;;;;;;;19.10;47.30;;;;;;5005965;28;19964;-72
2022/12/30 06:16:17;;;;;;;;;;;19.10;47.20;;;;;;5009170;28;19922;-72
2022/12/30 06:18:44;;;;;;;;;;;19.10;47.20;;;;;;5009132;28;19937;-74
2022/12/30 06:21:11;;;;;;;;;;;19.10;47.20;;;;;;5010399;28;20368;-72
2022/12/30 06:23:38;;;;;;;;;;;19.10;47.20;;;;;;5009642;28;19948;-75
2022/12/30 06:26:04;;;;;;;;;;;19.10;47.20;;;;;;5009050;28;20015;-73
2022/12/30 06:28:33;;;;;;;;;;;19.10;47.20;;;;;;5006102;28;19972;-73
2022/12/30 06:31:00;;;;;;;;;;;19.10;47.20;;;;;;5007840;28;20031;-73
2022/12/30 06:33:26;;;;;;;;;;;19.10;47.20;;;;;;5008497;28;19921;-72
2022/12/30 06:35:53;;;;;;;;;;;19.10;47.20;;;;;;5007586;28;20448;-74
2022/12/30 06:38:20;;;;;;;;;;;19.10;47.20;;;;;;5005717;28;19921;-74
2022/12/30 06:40:47;;;;;;;;;;;19.10;47.20;;;;;;5009462;28;19925;-76
2022/12/30 06:43:13;;;;;;;;;;;19.10;47.20;;;;;;5006701;28;20335;-72
2022/12/30 06:45:42;;;;;;;;;;;19.10;47.20;;;;;;5004964;28;19926;-72
2022/12/30 06:48:08;;;;;;;;;;;19.10;47.20;;;;;;5006880;28;19968;-77
2022/12/30 06:50:36;;;;;;;;;;;19.10;47.20;;;;;;5008864;28;19925;-71
2022/12/30 06:53:02;;;;;;;;;;;19.10;47.20;;;;;;5009894;28;19921;-74
2022/12/30 06:55:29;;;;;;;;;;;19.10;47.20;;;;;;5009118;28;19925;-72
2022/12/30 06:57:56;;;;;;;;;;;19.10;47.20;;;;;;5011015;28;20358;-72
2022/12/30 07:00:23;;;;;;;;;;;19.10;47.10;;;;;;5004349;28;19972;-73
2022/12/30 07:02:51;;;;;;;;;;;19.00;47.00;;;;;;5004994;28;19925;-79
2022/12/30 07:05:18;;;;;;;;;;;19.00;47.00;;;;;;5008188;28;19925;-72
2022/12/30 07:07:45;;;;;;;;;;;19.10;47.10;;;;;;5009653;28;19980;-72
2022/12/30 07:10:12;;;;;;;;;;;19.00;47.00;;;;;;5009406;28;19921;-72
2022/12/30 07:12:39;;;;;;;;;;;19.10;47.10;;;;;;5008666;28;20043;-72
2022/12/30 07:15:06;;;;;;;;;;;19.10;47.10;;;;;;5008005;28;19925;-75
2022/12/30 07:17:33;;;;;;;;;;;19.10;47.10;;;;;;5006851;28;20016;-74
2022/12/30 07:20:02;;;;;;;;;;;19.10;47.10;;;;;;5007997;28;19921;-72
2022/12/30 07:22:29;;;;;;;;;;;19.00;47.00;;;;;;5007384;28;19932;-72
2022/12/30 07:24:55;;;;;;;;;;;19.00;47.00;;;;;;5007589;28;19922;-72
2022/12/30 07:27:22;;;;;;;;;;;19.00;47.00;;;;;;5008619;28;19968;-72
2022/12/30 07:29:49;;;;;;;;;;;19.00;47.00;;;;;;5007646;28;20382;-73
2022/12/30 07:32:15;;;;;;;;;;;19.10;47.10;;;;;;5007531;28;19921;-71
2022/12/30 07:34:42;;;;;;;;;;;19.10;47.00;;;;;;5007260;28;19925;-70
2022/12/30 07:37:11;;;;;;;;;;;19.10;47.10;;;;;;5007541;28;19925;-70
2022/12/30 07:39:38;;;;;;;;;;;19.10;47.10;;;;;;5009485;28;19921;-72
2022/12/30 07:42:05;;;;;;;;;;;19.10;47.10;;;;;;5007933;28;20449;-68
2022/12/30 07:44:31;;;;;;;;;;;19.10;47.00;;;;;;5004289;28;20013;-66
2022/12/30 07:46:58;;;;;;;;;;;19.10;47.10;;;;;;5007319;28;19956;-68
2022/12/30 07:49:25;;;;;;;;;;;19.10;47.70;;;;;;5009736;28;19987;-70
2022/12/30 07:51:51;;;;;;;;;;;19.10;47.10;;;;;;5009933;28;19929;-68
2022/12/30 07:54:20;;;;;;;;;;;19.10;47.00;;;;;;5009937;28;20008;-70
2022/12/30 07:56:46;;;;;;;;;;;19.10;47.00;;;;;;5008822;28;19936;-67
2022/12/30 07:59:13;;;;;;;;;;;19.10;47.00;;;;;;5008970;28;19960;-68
2022/12/30 08:01:40;;;;;;;;;;;19.10;47.00;;;;;;5006978;28;19925;-67
2022/12/30 08:04:07;;;;;;;;;;;19.10;47.00;;;;;;5007210;28;19987;-72
2022/12/30 08:06:34;;;;;;;;;;;19.10;47.00;;;;;;4999849;28;20038;-67
2022/12/30 08:09:02;;;;;;;;;;;19.10;47.10;;;;;;5008315;28;19940;-67
2022/12/30 08:11:31;;;;;;;;;;;19.10;47.00;;;;;;5012772;28;20434;-67
2022/12/30 08:13:58;;;;;;;;;;;19.10;47.00;;;;;;5004774;28;19922;-69
2022/12/30 08:16:24;;;;;;;;;;;19.10;47.00;;;;;;4992250;28;19950;-67
2022/12/30 08:18:51;;;;;;;;;;;19.00;47.00;;;;;;5009441;28;19975;-70
2022/12/30 08:21:18;;;;;;;;;;;19.10;47.00;;;;;;5014051;28;19996;-67
2022/12/30 08:23:46;;;;;;;;;;;19.00;47.00;;;;;;5001556;28;19922;-69
2022/12/30 08:26:14;;;;;;;;;;;19.00;47.00;;;;;;4994677;28;19933;-67
2022/12/30 08:28:42;;;;;;;;;;;19.10;47.00;;;;;;5006629;28;19922;-69
2022/12/30 08:31:15;;;;;;;;;;;19.00;47.00;;;;;;5012781;28;19921;-69
2022/12/30 08:33:42;;;;;;;;;;;19.10;47.00;;;;;;5012876;28;19922;-68
2022/12/30 08:36:09;;;;;;;;;;;19.10;47.00;;;;;;5029634;28;19925;-68
2022/12/30 08:38:36;;;;;;;;;;;19.10;47.00;;;;;;5007961;28;19960;-68
2022/12/30 08:41:06;;;;;;;;;;;19.10;47.00;;;;;;5012010;28;19952;-73
2022/12/30 08:43:33;;;;;;;;;;;19.10;47.00;;;;;;5010321;28;19975;-68
2022/12/30 08:46:02;;;;;;;;;;;19.10;47.00;;;;;;5013763;28;19965;-70
2022/12/30 08:48:29;;;;;;;;;;;19.10;47.10;;;;;;5008990;28;20021;-68
2022/12/30 08:50:56;;;;;;;;;;;19.10;47.00;;;;;;4993341;28;19984;-67
2022/12/30 08:53:23;;;;;;;;;;;19.10;47.10;;;;;;5000667;28;20402;-71
2022/12/30 08:55:49;;;;;;;;;;;19.10;47.00;;;;;;5012281;28;19984;-68
2022/12/30 08:58:16;;;;;;;;;;;19.10;47.00;;;;;;5010932;28;19968;-69
2022/12/30 09:00:44;;;;;;;;;;;19.10;47.10;;;;;;5012486;28;19929;-75
2022/12/30 09:03:12;;;;;;;;;;;19.10;47.10;;;;;;5006683;28;20360;-69
2022/12/30 09:05:39;;;;;;;;;;;19.10;47.10;;;;;;5012957;28;19921;-67
2022/12/30 09:08:06;;;;;;;;;;;19.10;47.20;;;;;;5012024;28;19994;-69
2022/12/30 09:10:32;;;;;;;;;;;19.10;47.20;;;;;;5011812;28;19936;-71
2022/12/30 09:13:00;;;;;;;;;;;19.10;47.40;;;;;;5012067;28;19921;-69
2022/12/30 09:15:26;;;;;;;;;;;19.10;47.30;;;;;;5013241;28;19921;-68
2022/12/30 09:17:53;;;;;;;;;;;19.10;47.40;;;;;;5001083;28;19921;-66
2022/12/30 09:20:21;;;;;;;;;;;19.10;47.40;;;;;;5011977;28;20025;-68
2022/12/30 09:22:48;;;;;;;;;;;19.20;47.50;;;;;;5001956;28;19961;-68
2022/12/30 09:25:15;;;;;;;;;;;19.20;47.50;;;;;;5011154;28;19987;-69
2022/12/30 09:27:41;;;;;;;;;;;19.20;47.50;;;;;;5011161;28;19957;-69
2022/12/30 09:30:09;;;;;;;;;;;19.20;47.60;;;;;;4994535;28;20260;-68
2022/12/30 09:32:35;;;;;;;;;;;19.20;47.60;;;;;;4990770;28;19975;-69
2022/12/30 09:35:02;;;;;;;;;;;19.20;47.60;;;;;;5002078;28;19957;-69
2022/12/30 09:37:30;;;;;;;;;;;19.20;47.60;;;;;;4993656;28;19945;-68
2022/12/30 09:39:57;;;;;;;;;;;19.20;47.60;;;;;;4996568;28;19926;-69
2022/12/30 09:45:17;;;;;;;;;;;19.20;47.70;;;;;;4962826;28;19921;-69
2022/12/30 09:47:45;;;;;;;;;;;19.20;47.70;;;;;;5012100;28;19928;-73
2022/12/30 09:50:15;;;;;;;;;;;19.20;47.70;;;;;;5007073;28;19921;-72
2022/12/30 09:52:45;;;;;;;;;;;19.20;47.70;;;;;;5009676;28;19928;-69
2022/12/30 09:55:12;;;;;;;;;;;19.20;47.70;;;;;;4992381;28;19925;-69
2022/12/30 09:57:39;;;;;;;;;;;19.20;47.70;;;;;;4992270;28;19973;-69
2022/12/30 10:00:07;;;;;;;;;;;19.20;47.70;;;;;;4996530;28;19976;-69
2022/12/30 10:02:38;;;;;;;;;;;19.20;48.30;;;;;;5025545;28;19944;-69
2022/12/30 10:05:06;;;;;;;;;;;19.20;47.70;;;;;;5010284;28;19979;-69
2022/12/30 10:07:33;;;;;;;;;;;19.20;47.70;;;;;;5010952;28;19932;-69
2022/12/30 10:10:02;;;;;;;;;;;19.20;47.70;;;;;;5011160;28;19964;-70
2022/12/30 10:12:35;;;;;;;;;;;19.20;47.70;;;;;;5030077;28;20633;-69
2022/12/30 10:15:06;;;;;;;;;;;19.20;47.70;;;;;;5014241;28;19989;-70
2022/12/30 10:17:40;;;;;;;;;;;19.20;47.70;;;;;;5010674;28;19922;-69
2022/12/30 10:20:08;;;;;;;;;;;19.20;47.80;;;;;;5008102;28;19933;-71
2022/12/30 10:22:37;;;;;;;;;;;19.20;47.70;;;;;;5010772;28;20011;-70
2022/12/30 10:25:13;;;;;;;;;;;19.20;47.80;;;;;;5005875;28;19976;-70
2022/12/30 10:27:41;;;;;;;;;;;19.20;47.80;;;;;;5007685;28;20015;-69
2022/12/30 10:30:12;;;;;;;;;;;19.20;47.80;;;;;;5007415;28;20012;-69
2022/12/30 10:32:39;;;;;;;;;;;19.20;47.80;;;;;;5010856;28;19976;-71
2022/12/30 10:35:09;;;;;;;;;;;19.20;47.80;;;;;;5012509;28;19983;-70
2022/12/30 10:37:36;;;;;;;;;;;19.20;47.80;;;;;;5011438;28;20055;-69
2022/12/30 10:40:07;;;;;;;;;;;19.20;47.70;;;;;;5012943;28;19928;-70
2022/12/30 10:42:43;;;;;;;;;;;19.20;47.70;;;;;;5007114;28;19925;-69
2022/12/30 10:45:29;;;;;;;;;;;19.20;47.70;;;;;;5020378;28;19922;-71
2022/12/30 10:47:58;;;;;;;;;;;19.20;47.70;;;;;;5004328;28;19929;-69
2022/12/30 10:50:27;;;;;;;;;;;19.20;48.30;;;;;;5010903;28;19957;-69
2022/12/30 10:52:54;;;;;;;;;;;19.20;47.70;;;;;;5001378;28;19981;-68
2022/12/30 10:55:22;;;;;;;;;;;19.20;47.70;;;;;;5009697;28;19968;-69
2022/12/30 10:57:50;;;;;;;;;;;19.20;47.70;;;;;;5008342;28;19952;-69
2022/12/30 11:00:17;;;;;;;;;;;19.20;47.70;;;;;;5008061;28;19922;-69
2022/12/30 11:02:47;;;;;;;;;;;19.20;47.70;;;;;;5008983;28;19957;-69
2022/12/30 11:05:26;;;;;;;;;;;19.20;47.70;;;;;;5010129;28;19921;-70
2022/12/30 11:07:54;;;;;;;;;;;19.20;47.70;;;;;;5009277;28;20327;-69
2022/12/30 11:10:20;;;;;;;;;;;19.20;47.70;;;;;;5025001;28;19963;-69
2022/12/30 11:15:33;;;;;;;;;;;19.20;47.70;;;;;;5006352;28;19928;-70
2022/12/30 11:18:00;;;;;;;;;;;19.20;47.70;;;;;;5009538;28;20116;-69
2022/12/30 11:20:29;;;;;;;;;;;19.20;47.70;;;;;;5008318;28;19929;-68
2022/12/30 11:22:57;;;;;;;;;;;19.20;47.70;;;;;;5007596;28;19921;-69
2022/12/30 11:25:25;;;;;;;;;;;19.20;47.70;;;;;;5009864;28;19921;-68
2022/12/30 11:27:52;;;;;;;;;;;19.20;47.80;;;;;;5011558;28;19926;-69
2022/12/30 11:30:22;;;;;;;;;;;19.20;47.70;;;;;;5005255;28;19984;-68
2022/12/30 11:32:50;;;;;;;;;;;19.20;47.70;;;;;;4994601;28;19921;-72
2022/12/30 11:35:31;;;;;;;;;;;19.20;47.80;;;;;;5010514;28;19976;-69
2022/12/30 11:37:58;;;;;;;;;;;19.20;47.80;;;;;;5009097;28;19979;-69
2022/12/30 11:40:26;;;;;;;;;;;19.20;47.80;;;;;;4995345;28;20287;-69
2022/12/30 11:43:04;;;;;;;;;;;19.20;47.80;;;;;;4993332;28;19928;-69
2022/12/30 11:45:31;;;;;;;;;;;19.20;47.80;;;;;;5007961;28;19922;-69
2022/12/30 11:47:59;;;;;;;;;;;19.20;47.80;;;;;;5018262;28;19929;-69
2022/12/30 11:50:25;;;;;;;;;;;19.20;47.80;;;;;;5006905;28;19945;-70
2022/12/30 11:52:52;;;;;;;;;;;19.20;48.10;;;;;;5008358;28;19932;-69
2022/12/30 11:55:20;;;;;;;;;;;19.20;47.80;;;;;;5009183;28;19928;-69
2022/12/30 11:57:47;;;;;;;;;;;19.20;47.80;;;;;;5009072;28;19929;-68
2022/12/30 12:00:25;;;;;;;;;;;19.20;47.80;;;;;;5008592;28;19921;-68
2022/12/30 12:02:53;;;;;;;;;;;19.20;47.80;;;;;;5005027;28;19937;-68
2022/12/30 12:05:27;;;;;;;;;;;19.20;47.80;;;;;;5003799;28;19934;-70
2022/12/30 12:07:54;;;;;;;;;;;19.20;47.80;;;;;;5009497;28;19922;-69
2022/12/30 12:10:22;;;;;;;;;;;19.20;47.90;;;;;;5017561;28;20092;-68
2022/12/30 12:12:50;;;;;;;;;;;19.20;47.80;;;;;;5026483;28;20462;-69
2022/12/30 12:15:20;;;;;;;;;;;19.20;47.80;;;;;;5002561;28;19921;-68
2022/12/30 12:17:47;;;;;;;;;;;19.20;47.80;;;;;;5009892;28;19927;-69
2022/12/30 12:20:22;;;;;;;;;;;19.20;47.80;;;;;;5008351;28;19971;-69
2022/12/30 12:22:54;;;;;;;;;;;19.20;47.90;;;;;;4998849;28;19925;-67
2022/12/30 12:25:21;;;;;;;;;;;19.20;47.90;;;;;;5008726;28;19921;-68
2022/12/30 12:27:49;;;;;;;;;;;19.20;47.90;;;;;;5006704;28;19997;-71
2022/12/30 12:30:16;;;;;;;;;;;19.20;47.90;;;;;;5007823;28;19921;-69
2022/12/30 12:32:55;;;;;;;;;;;19.20;47.90;;;;;;5009117;28;20367;-69
2022/12/30 12:35:23;;;;;;;;;;;19.20;47.90;;;;;;5008332;28;19921;-68
2022/12/30 12:37:54;;;;;;;;;;;19.20;47.90;;;;;;5008912;28;19922;-68
2022/12/30 12:40:26;;;;;;;;;;;19.20;47.90;;;;;;4998750;28;19957;-69
2022/12/30 12:42:54;;;;;;;;;;;19.20;47.90;;;;;;5006993;28;19960;-68
2022/12/30 12:45:24;;;;;;;;;;;19.20;47.90;;;;;;5009090;28;19921;-69
2022/12/30 12:47:53;;;;;;;;;;;19.20;47.90;;;;;;5009689;28;19925;-68
2022/12/30 12:50:27;;;;;;;;;;;19.20;47.90;;;;;;5009105;28;20355;-68
2022/12/30 12:52:58;;;;;;;;;;;19.20;47.90;;;;;;5009716;28;19955;-70
2022/12/30 12:55:29;;;;;;;;;;;19.20;47.90;;;;;;5009573;28;19922;-69
2022/12/30 12:57:58;;;;;;;;;;;19.20;47.90;;;;;;5008391;28;19976;-69
2022/12/30 13:00:25;;;;;;;;;;;19.20;47.90;;;;;;4997512;28;20015;-70
2022/12/30 13:03:25;;;;;;;;;;;19.20;47.90;;;;;;4990998;28;19929;-68
2022/12/30 13:05:54;;;;;;;;;;;19.20;47.90;;;;;;4969051;28;19926;-68
2022/12/30 13:08:27;;;;;;;;;;;19.20;47.90;;;;;;4961222;28;19922;-72
2022/12/30 13:10:54;;;;;;;;;;;19.20;47.90;;;;;;4994733;28;19929;-71
2022/12/30 13:13:23;;;;;;;;;;;19.20;47.90;;;;;;5032677;28;19925;-68
2022/12/30 13:15:50;;;;;;;;;;;19.20;47.90;;;;;;5017725;28;19925;-68
2022/12/30 13:18:18;;;;;;;;;;;19.20;47.90;;;;;;5011678;28;19967;-68
2022/12/30 13:20:46;;;;;;;;;;;19.20;47.90;;;;;;5011169;28;19921;-69
2022/12/30 13:23:13;;;;;;;;;;;19.20;47.90;;;;;;5011308;28;19973;-69
2022/12/30 13:25:42;;;;;;;;;;;19.20;47.90;;;;;;5011763;28;19971;-69
2022/12/30 13:28:12;;;;;;;;;;;19.20;47.90;;;;;;5004920;28;20579;-68
2022/12/30 13:30:41;;;;;;;;;;;19.20;47.90;;;;;;5002114;28;19936;-69
2022/12/30 13:33:09;;;;;;;;;;;19.20;47.90;;;;;;5011512;28;19922;-70
2022/12/30 13:35:39;;;;;;;;;;;19.20;47.90;;;;;;5011345;28;19969;-70
2022/12/30 13:38:12;;;;;;;;;;;19.20;47.90;;;;;;5011185;28;19932;-69
2022/12/30 13:40:43;;;;;;;;;;;19.20;47.90;;;;;;5012343;28;19925;-69
2022/12/30 13:43:16;;;;;;;;;;;19.20;47.90;;;;;;5011622;28;19956;-69
2022/12/30 13:45:43;;;;;;;;;;;19.20;47.90;;;;;;5007177;28;19961;-69
2022/12/30 13:48:12;;;;;;;;;;;19.20;47.90;;;;;;5011546;28;19928;-69
2022/12/30 13:50:39;;;;;;;;;;;19.20;47.90;;;;;;5011094;28;19944;-68
2022/12/30 13:53:07;;;;;;;;;;;19.20;47.90;;;;;;5028731;28;19975;-68
2022/12/30 13:55:34;;;;;;;;;;;19.20;47.90;;;;;;5010177;28;19921;-69
2022/12/30 13:58:05;;;;;;;;;;;19.20;47.90;;;;;;5009508;28;19996;-69
2022/12/30 14:00:34;;;;;;;;;;;19.20;47.90;;;;;;5004863;28;19921;-68
2022/12/30 14:03:02;;;;;;;;;;;19.20;47.90;;;;;;5010649;28;19944;-69
2022/12/30 14:05:59;;;;;;;;;;;19.20;47.90;;;;;;5001553;28;20301;-69
2022/12/30 14:08:59;;;;;;;;;;;19.20;47.90;;;;;;5011236;28;19922;-70
2022/12/30 14:11:26;;;;;;;;;;;19.20;47.90;;;;;;4968536;28;19981;-69
2022/12/30 14:14:05;;;;;;;;;;;19.20;48.00;;;;;;4966838;28;20441;-70
2022/12/30 14:16:43;;;;;;;;;;;19.20;47.90;;;;;;4968886;28;19929;-68
2022/12/30 14:19:11;;;;;;;;;;;19.20;47.90;;;;;;5001255;28;19921;-69
2022/12/30 14:21:46;;;;;;;;;;;19.20;47.90;;;;;;5008751;28;19921;-69
2022/12/30 14:24:44;;;;;;;;;;;19.20;47.90;;;;;;5012661;28;20418;-69
2022/12/30 14:27:26;;;;;;;;;;;19.20;47.90;;;;;;5011533;28;19987;-69
2022/12/30 14:30:00;;;;;;;;;;;19.20;48.00;;;;;;4994184;28;20206;-68
2022/12/30 14:32:28;;;;;;;;;;;19.20;48.00;;;;;;5009332;28;19967;-71
2022/12/30 14:34:57;;;;;;;;;;;19.20;47.90;;;;;;5009611;28;19995;-69
2022/12/30 14:37:23;;;;;;;;;;;19.20;47.90;;;;;;5009230;28;19975;-69
2022/12/30 14:39:50;;;;;;;;;;;19.20;47.90;;;;;;5009693;28;19980;-70
2022/12/30 14:42:21;;;;;;;;;;;19.20;48.00;;;;;;5009562;28;20277;-70
2022/12/30 14:44:50;;;;;;;;;;;19.20;47.90;;;;;;4991949;28;20065;-70
2022/12/30 14:47:17;;;;;;;;;;;19.20;47.90;;;;;;5011001;28;19925;-69
2022/12/30 14:49:51;;;;;;;;;;;19.20;47.90;;;;;;5005640;28;19972;-69
2022/12/30 14:52:19;;;;;;;;;;;19.20;47.90;;;;;;5011134;28;19925;-69
2022/12/30 14:54:46;;;;;;;;;;;19.20;47.90;;;;;;5010921;28;19976;-69
2022/12/30 14:57:17;;;;;;;;;;;19.20;48.00;;;;;;5009755;28;19929;-69
2022/12/30 14:59:45;;;;;;;;;;;19.20;48.00;;;;;;5003782;28;19928;-70
2022/12/30 15:02:14;;;;;;;;;;;19.20;47.90;;;;;;5010965;28;19922;-70
2022/12/30 15:04:41;;;;;;;;;;;19.20;47.90;;;;;;5010693;28;19944;-72
2022/12/30 15:07:09;;;;;;;;;;;19.20;47.90;;;;;;5011177;28;19933;-69
2022/12/30 15:09:36;;;;;;;;;;;19.20;47.90;;;;;;5011941;28;19921;-69
2022/12/30 15:12:03;;;;;;;;;;;19.20;48.00;;;;;;5012194;28;19926;-68
2022/12/30 15:14:30;;;;;;;;;;;19.20;48.00;;;;;;4991814;28;20284;-69
2022/12/30 15:17:06;;;;;;;;;;;19.20;48.00;;;;;;5021710;28;19972;-69
2022/12/30 15:19:34;;;;;;;;;;;19.20;47.90;;;;;;4991254;28;19929;-71
2022/12/30 15:22:00;;;;;;;;;;;19.20;48.00;;;;;;5006501;28;19922;-69